Ellsworth Air Force Base
KRCA : now visible

Airfield :











YOU CAN JOIN US ON...

 
LOGIN :

Register | Disclaimer

   EN    FR    IT 

 









Legend :    VFR   Marginal VFR   IFR   Intensive IFR   Very Intensive IFR
Visi :
Ceiling :
>= 8 km
>= 3000ft
5 to 8 km
1000 to 3000 ft
1500m to 5 km
500 to 1000 ft
800 to 1500m
200 to 500 ft
< 800m
< 200 ft
Symbols :   Thunderstorms  Fog  Heavy snow  Heavy precipitations  Wind > 20 kt







- Airport Elevation : 3276 ft


KRCA - Ellsworth Air Force Base

CURRENT METAR :
  • 191156Z AUTO 33014KT 10SM -RA OVC003 01/01 A3000 RMK AO2 SLP186 P0000 60002 70007 T00110011 10011 20004 52010 $

EXPIRED METARs :
  • 191056Z AUTO 32013KT 10SM -RA OVC003 01/01 A2998 RMK AO2 CIG 002 RWY13 SLP179 P0000 T00090009 $
  • 190956Z AUTO 33016KT 10SM -RA OVC003 01/01 A2997 RMK AO2 SNE39UPB39E42RAB42 OVC V BKN CIG 002 RWY13 SLP173 P0000 T00070007 $

Expired Forecast.
KZDV FIR / North America



MET'MAP, your aeronautical weather chart ! - Copyright ORBIFLY December 2007 - Disclaimer

ORBIFLY MET'MAP TEAM :

Programming & Development : Alexandra Zaïnal
Concept & Development : Baudouin d'Aumeries
Co-Development & Prog : Marc-Olivier Méhu
Technical & hardware support : Manuel Goepfert

Contact : metmap@orbifly.com




SOURCES & CREDITS :

   NOAA       Earth
Advisory